Aviation Digital Data Service (ADDS)

Output produced by METARs form (2254 UTC 20 January 2019)
found at http://www.aviationweather.gov/metar/data/
 
Forecast for: VDSR (SIEMREAP , KH)
Text: TAF VDSR 201700Z 2018/2112 08007KT 9999 SCT017
Forecast period: 1800 UTC 20 January 2019 to 1200 UTC 21 January 2019
Forecast type: FROM: standard forecast or significant change
Winds: from the E (80 degrees) at 8 MPH (7 knots; 3.6 m/s)
Visibility: 6 or more miles 10+ km)
Ceiling: at least 12,000 feet AGL
Clouds: scattered clouds at 1700 feet AGL
Weather: no significant weather forecast for this period